createdAt,value
2023-05-07T00:00:00.501Z,21.55
2023-05-07T00:05:03.665Z,21.56
2023-05-07T00:10:07.084Z,21.57
2023-05-07T00:15:09.036Z,21.59
2023-05-07T00:20:11.237Z,21.58
2023-05-07T00:25:12.811Z,21.56
2023-05-07T00:30:14.247Z,21.58
2023-05-07T00:35:15.805Z,21.60
2023-05-07T00:40:17.229Z,21.62
2023-05-07T00:45:18.878Z,21.60
2023-05-07T00:50:21.070Z,21.60
2023-05-07T00:55:23.042Z,21.62
2023-05-07T01:00:25.609Z,21.61
2023-05-07T01:05:27.082Z,21.61
2023-05-07T01:10:31.397Z,21.63
2023-05-07T01:15:32.887Z,21.61
2023-05-07T01:20:34.250Z,21.62
2023-05-07T01:25:35.656Z,21.61
2023-05-07T01:30:37.169Z,21.63
2023-05-07T01:35:41.661Z,21.63
2023-05-07T01:40:43.101Z,21.62
2023-05-07T01:45:45.379Z,21.63
2023-05-07T01:50:46.840Z,21.63
2023-05-07T01:55:48.203Z,21.61
2023-05-07T02:00:49.570Z,21.63
2023-05-07T02:05:51.050Z,21.64
2023-05-07T02:10:52.855Z,21.62
2023-05-07T02:15:54.584Z,21.64
2023-05-07T02:20:56.026Z,21.63
2023-05-07T02:25:57.396Z,21.63
2023-05-07T02:31:02.018Z,21.64
2023-05-07T02:36:07.924Z,21.65
2023-05-07T02:41:09.190Z,21.62
2023-05-07T02:46:10.760Z,21.62
2023-05-07T02:51:12.177Z,21.63
2023-05-07T02:56:13.897Z,21.65
2023-05-07T03:01:15.697Z,21.63
2023-05-07T03:06:17.151Z,21.65
2023-05-07T03:11:18.546Z,21.64
2023-05-07T03:16:20.020Z,21.65
2023-05-07T03:21:21.506Z,21.66
2023-05-07T03:26:23.076Z,21.64
2023-05-07T03:31:24.525Z,21.64
2023-05-07T03:36:27.733Z,21.64
2023-05-07T03:41:30.499Z,21.65
2023-05-07T03:46:33.647Z,21.63
2023-05-07T03:51:36.898Z,21.64
2023-05-07T03:56:38.286Z,21.69
2023-05-07T04:01:39.730Z,21.65
2023-05-07T04:06:41.160Z,21.65
2023-05-07T04:11:42.673Z,21.67
2023-05-07T04:16:44.093Z,21.66
2023-05-07T04:21:45.564Z,21.64
2023-05-07T04:26:46.989Z,21.66
2023-05-07T04:31:48.428Z,21.67
2023-05-07T04:36:49.850Z,21.67
2023-05-07T04:41:51.251Z,21.66
2023-05-07T04:46:52.655Z,21.71
2023-05-07T04:51:54.078Z,21.68
2023-05-07T04:56:55.461Z,21.67
2023-05-07T05:01:57.298Z,21.67
2023-05-07T05:06:59.019Z,21.67
2023-05-07T05:12:00.591Z,21.68
2023-05-07T05:17:02.003Z,21.67
2023-05-07T05:22:04.730Z,21.68
2023-05-07T05:27:06.111Z,21.69
2023-05-07T05:32:07.494Z,21.69
2023-05-07T05:37:08.871Z,21.70
2023-05-07T05:42:10.280Z,21.70
2023-05-07T05:47:11.652Z,21.68
2023-05-07T05:52:13.321Z,21.68
2023-05-07T05:57:14.693Z,21.71
2023-05-07T06:02:16.198Z,21.69
2023-05-07T06:07:17.701Z,21.68
2023-05-07T06:12:19.097Z,21.71
2023-05-07T06:17:21.892Z,21.70
2023-05-07T06:22:23.592Z,21.71
2023-05-07T06:27:25.051Z,21.72
2023-05-07T06:32:26.435Z,21.71
2023-05-07T06:37:27.840Z,21.69
2023-05-07T06:42:29.228Z,21.69
2023-05-07T06:47:30.935Z,21.69
2023-05-07T06:52:32.371Z,21.70
2023-05-07T06:57:33.754Z,21.70
2023-05-07T07:02:35.225Z,21.72
2023-05-07T07:07:36.662Z,21.72
2023-05-07T07:12:38.078Z,21.72
2023-05-07T07:17:39.517Z,21.72
2023-05-07T07:22:41.046Z,21.74
2023-05-07T07:27:42.441Z,21.74
2023-05-07T07:32:43.935Z,21.70
2023-05-07T07:37:45.456Z,21.72
2023-05-07T07:42:46.854Z,21.71
2023-05-07T07:47:48.234Z,21.71
2023-05-07T07:52:49.622Z,21.74
2023-05-07T07:57:51.058Z,21.73
2023-05-07T08:02:52.575Z,21.74
2023-05-07T08:07:54.287Z,21.74
2023-05-07T08:12:55.799Z,21.72
2023-05-07T08:17:58.497Z,21.72
2023-05-07T08:22:59.998Z,21.71
2023-05-07T08:28:01.898Z,21.74
2023-05-07T08:33:03.606Z,21.73
2023-05-07T08:38:05.168Z,21.73
2023-05-07T08:43:06.713Z,21.74
2023-05-07T08:48:16.308Z,21.75
2023-05-07T08:53:17.785Z,21.75
2023-05-07T08:58:19.163Z,21.75
2023-05-07T09:03:20.734Z,21.76
2023-05-07T09:08:27.481Z,21.78
2023-05-07T09:13:29.038Z,21.77
2023-05-07T09:18:30.475Z,21.77
2023-05-07T09:23:31.891Z,21.78
2023-05-07T09:28:34.198Z,21.78
2023-05-07T09:33:36.094Z,21.78
2023-05-07T09:38:37.954Z,21.78
2023-05-07T09:43:39.848Z,21.78
2023-05-07T09:48:42.995Z,21.78
2023-05-07T09:53:44.561Z,21.79
2023-05-07T09:58:46.076Z,21.80
2023-05-07T10:03:47.568Z,21.78
2023-05-07T10:08:49.325Z,21.81
2023-05-07T10:13:50.771Z,21.79
2023-05-07T10:18:52.141Z,21.80
2023-05-07T10:24:01.374Z,21.81
2023-05-07T10:29:08.692Z,21.81
2023-05-07T10:34:14.812Z,21.81
2023-05-07T10:39:16.201Z,21.80
2023-05-07T10:44:30.008Z,21.80
2023-05-07T10:49:31.396Z,21.82
2023-05-07T10:54:37.409Z,21.83
2023-05-07T10:59:42.766Z,21.83
2023-05-07T11:04:44.314Z,21.83
2023-05-07T11:09:52.102Z,21.83
2023-05-07T11:14:54.814Z,21.86
2023-05-07T11:19:56.339Z,21.81
2023-05-07T11:25:00.969Z,21.80
2023-05-07T11:30:02.391Z,21.84
2023-05-07T11:35:03.878Z,21.85
2023-05-07T11:40:09.822Z,21.81
2023-05-07T11:45:11.757Z,21.82
2023-05-07T11:50:13.336Z,21.83
2023-05-07T11:55:14.750Z,21.85
2023-05-07T12:00:16.920Z,21.84
2023-05-07T12:05:18.396Z,21.85
2023-05-07T12:10:20.685Z,21.86
2023-05-07T12:15:23.928Z,21.87
2023-05-07T12:20:25.538Z,21.86
2023-05-07T12:25:27.138Z,21.86
2023-05-07T12:30:28.588Z,21.85
2023-05-07T12:35:30.677Z,21.87
2023-05-07T12:40:42.557Z,21.85
2023-05-07T12:45:44.123Z,21.85
2023-05-07T12:50:45.548Z,21.85
2023-05-07T12:55:51.374Z,21.86
2023-05-07T13:00:52.642Z,21.87
2023-05-07T13:05:58.488Z,21.88
2023-05-07T13:11:04.332Z,21.88
2023-05-07T13:16:06.777Z,21.86
2023-05-07T13:21:08.347Z,21.87
2023-05-07T13:26:22.489Z,21.86
2023-05-07T13:31:27.556Z,21.87
2023-05-07T13:36:29.454Z,21.88
2023-05-07T13:41:30.892Z,21.86
2023-05-07T13:46:32.410Z,21.86
2023-05-07T13:51:33.847Z,21.86
2023-05-07T13:56:35.289Z,21.86
2023-05-07T14:01:36.682Z,21.86
2023-05-07T14:06:38.308Z,21.86
2023-05-07T14:11:40.706Z,21.85
2023-05-07T14:16:42.115Z,21.85
2023-05-07T14:21:43.542Z,21.85
2023-05-07T14:26:46.085Z,21.89
2023-05-07T14:31:47.491Z,21.88
2023-05-07T14:36:48.886Z,21.87
2023-05-07T14:41:50.315Z,21.87
2023-05-07T14:46:51.708Z,21.90
2023-05-07T14:51:53.098Z,21.87
2023-05-07T14:56:54.515Z,21.87
2023-05-07T15:01:55.962Z,21.86
2023-05-07T15:06:57.468Z,21.85
2023-05-07T15:11:59.002Z,21.86
2023-05-07T15:17:00.367Z,21.87
2023-05-07T15:22:03.706Z,21.87
2023-05-07T15:27:05.291Z,21.85
2023-05-07T15:32:06.885Z,21.85
2023-05-07T15:37:08.349Z,21.87
2023-05-07T15:42:09.944Z,21.88
2023-05-07T15:47:11.411Z,21.87
2023-05-07T15:52:14.561Z,21.88
2023-05-07T15:57:16.150Z,21.87
2023-05-07T16:02:17.554Z,21.84
2023-05-07T16:07:19.699Z,21.85
2023-05-07T16:12:22.445Z,21.87
2023-05-07T16:17:23.866Z,21.84
2023-05-07T16:22:25.970Z,21.83
2023-05-07T16:27:27.374Z,21.86
2023-05-07T16:32:29.967Z,21.84
2023-05-07T16:37:33.228Z,21.86
2023-05-07T16:42:35.281Z,21.82
2023-05-07T16:47:36.724Z,21.83
2023-05-07T16:52:38.149Z,21.83
2023-05-07T16:57:39.517Z,21.83
2023-05-07T17:02:40.971Z,21.84
2023-05-07T17:07:42.416Z,21.84
2023-05-07T17:12:44.062Z,21.85
2023-05-07T17:17:45.551Z,21.83
2023-05-07T17:22:47.170Z,21.90
2023-05-07T17:27:48.918Z,21.86
2023-05-07T17:32:50.370Z,21.85
2023-05-07T17:37:52.478Z,21.84
2023-05-07T17:42:54.994Z,21.85
2023-05-07T17:47:57.704Z,21.84
2023-05-07T17:52:59.139Z,21.83
2023-05-07T17:58:00.578Z,21.84
2023-05-07T18:03:02.709Z,21.81
2023-05-07T18:08:04.167Z,21.82
2023-05-07T18:13:05.625Z,21.82
2023-05-07T18:18:07.102Z,21.80
2023-05-07T18:23:08.982Z,21.81
2023-05-07T18:28:10.366Z,21.81
2023-05-07T18:33:13.087Z,21.81
2023-05-07T18:38:14.518Z,21.81
2023-05-07T18:43:16.082Z,21.80
2023-05-07T18:48:17.532Z,21.80
2023-05-07T18:53:18.905Z,21.80
2023-05-07T18:58:20.482Z,21.81
2023-05-07T19:03:21.964Z,21.79
2023-05-07T19:08:23.566Z,21.79
2023-05-07T19:13:27.183Z,21.79
2023-05-07T19:18:29.644Z,21.80
2023-05-07T19:23:32.299Z,21.78
2023-05-07T19:28:34.458Z,21.78
2023-05-07T19:33:36.313Z,21.80
2023-05-07T19:38:37.712Z,21.79
2023-05-07T19:43:39.492Z,21.78
2023-05-07T19:48:40.875Z,21.80
2023-05-07T19:53:42.341Z,21.79
2023-05-07T19:58:43.730Z,21.80
2023-05-07T20:03:45.435Z,21.78
2023-05-07T20:08:46.886Z,21.79
2023-05-07T20:13:48.306Z,21.79
2023-05-07T20:18:49.694Z,21.78
2023-05-07T20:23:51.418Z,21.78
2023-05-07T20:28:52.961Z,21.79
2023-05-07T20:33:54.334Z,21.77
2023-05-07T20:38:56.072Z,21.79
2023-05-07T20:43:57.569Z,21.78
2023-05-07T20:48:58.952Z,21.79
2023-05-07T20:54:00.327Z,21.76
2023-05-07T20:59:04.078Z,21.78
2023-05-07T21:04:05.463Z,21.78
2023-05-07T21:09:07.683Z,21.77
2023-05-07T21:14:09.099Z,21.78
2023-05-07T21:19:10.857Z,21.78
2023-05-07T21:24:12.310Z,21.79
2023-05-07T21:29:13.690Z,21.79
2023-05-07T21:34:15.086Z,21.78
2023-05-07T21:39:16.479Z,21.80
2023-05-07T21:44:17.893Z,21.78
2023-05-07T21:49:19.264Z,21.81
2023-05-07T21:54:20.782Z,21.77
2023-05-07T21:59:22.199Z,21.78
2023-05-07T22:04:23.583Z,21.79
2023-05-07T22:09:24.953Z,21.80
2023-05-07T22:14:26.362Z,21.79
2023-05-07T22:19:27.740Z,21.80
2023-05-07T22:24:29.365Z,21.79
2023-05-07T22:29:30.760Z,21.82
2023-05-07T22:34:32.147Z,21.82
2023-05-07T22:39:34.967Z,21.79
2023-05-07T22:44:36.345Z,21.82
2023-05-07T22:49:37.731Z,21.80
2023-05-07T22:54:39.100Z,21.76
2023-05-07T22:59:40.479Z,21.79
2023-05-07T23:04:41.898Z,21.81
2023-05-07T23:09:43.282Z,21.82
2023-05-07T23:14:44.711Z,21.81
2023-05-07T23:19:46.153Z,21.79
2023-05-07T23:24:47.558Z,21.81
2023-05-07T23:29:48.934Z,21.80
2023-05-07T23:34:51.011Z,21.83
2023-05-07T23:39:55.165Z,21.79
2023-05-07T23:44:57.002Z,21.82
2023-05-07T23:49:58.383Z,21.83
2023-05-07T23:54:59.757Z,21.81
